Time;durP1;ratioP1;P1;durP2;ratioP2;P2;SDS_P1;SDS_P2;PMS_P1;PMS_P2;Temp;Humidity;BMP_temperature;BMP_pressure;BME280_temperature;BME280_humidity;BME280_pressure;Samples;Min_cycle;Max_cycle;Signal;HPM_P1;HPM_P2
2023/03/02 00:01:09;;;;;;;31.00;19.58;;;18.90;99.90;;;;;;4589107;19;19925;-33
2023/03/02 00:02:42;;;;;;;32.55;19.63;;;18.90;99.90;;;;;;4589539;19;20015;-32
2023/03/02 00:04:23;;;;;;;31.05;21.02;;;18.90;99.90;;;;;;4590123;19;20007;-31
2023/03/02 00:05:55;;;;;;;33.15;20.67;;;18.90;99.90;;;;;;4589001;19;20018;-33
2023/03/02 00:07:30;;;;;;;31.90;22.13;;;18.90;99.90;;;;;;4588814;19;20034;-32
2023/03/02 00:09:03;;;;;;;33.88;22.30;;;18.80;99.90;;;;;;4588109;19;20070;-31
2023/03/02 00:10:35;;;;;;;32.58;21.58;;;18.80;99.90;;;;;;4589455;19;20006;-31
2023/03/02 00:12:06;;;;;;;30.83;21.27;;;18.80;99.90;;;;;;4589599;19;20022;-31
2023/03/02 00:13:39;;;;;;;33.42;21.30;;;18.80;99.90;;;;;;4588618;19;20046;-31
2023/03/02 00:15:11;;;;;;;35.40;22.73;;;18.80;99.90;;;;;;4589824;19;20003;-33
2023/03/02 00:16:44;;;;;;;30.67;20.85;;;18.80;99.90;;;;;;4590008;19;20011;-31
2023/03/02 00:18:16;;;;;;;31.05;21.50;;;18.70;99.90;;;;;;4590089;19;20014;-32
2023/03/02 00:19:47;;;;;;;30.45;21.45;;;18.70;99.90;;;;;;4589935;19;20066;-32
2023/03/02 00:21:18;;;;;;;30.52;20.77;;;18.70;99.90;;;;;;4590020;19;20007;-32
2023/03/02 00:22:50;;;;;;;36.03;22.88;;;18.60;99.90;;;;;;4589527;19;20017;-32
2023/03/02 00:24:23;;;;;;;29.13;21.23;;;18.60;99.90;;;;;;4589516;19;20014;-34
2023/03/02 00:25:55;;;;;;;34.22;22.75;;;18.60;99.90;;;;;;4589885;19;20472;-31
2023/03/02 00:27:28;;;;;;;30.33;19.35;;;18.60;99.90;;;;;;4589436;19;20476;-31
2023/03/02 00:29:00;;;;;;;29.15;19.98;;;18.60;99.90;;;;;;4589470;19;20472;-30
2023/03/02 00:30:33;;;;;;;33.58;20.95;;;18.60;99.90;;;;;;4589419;19;20011;-32
2023/03/02 00:32:05;;;;;;;31.75;20.73;;;18.60;99.90;;;;;;4589147;19;20476;-34
2023/03/02 00:33:38;;;;;;;29.80;20.42;;;18.60;99.90;;;;;;4589390;19;20025;-31
2023/03/02 00:35:10;;;;;;;;;;;18.50;99.90;;;;;;4590388;19;20017;-33
2023/03/02 00:36:42;;;;;;;28.23;20.10;;;18.50;99.90;;;;;;4589455;19;19918;-33
2023/03/02 00:38:14;;;;;;;29.88;19.45;;;18.50;99.90;;;;;;4589291;19;20024;-30
2023/03/02 00:39:47;;;;;;;30.35;19.17;;;18.50;99.90;;;;;;4589342;19;20143;-31
2023/03/02 00:41:20;;;;;;;28.45;18.95;;;18.40;99.90;;;;;;4588162;19;20079;-32
2023/03/02 00:42:52;;;;;;;27.60;18.45;;;18.50;99.90;;;;;;4588130;19;20010;-31
2023/03/02 00:44:25;;;;;;;28.70;19.15;;;18.40;99.90;;;;;;4589217;19;20006;-34
2023/03/02 00:45:57;;;;;;;28.92;19.08;;;18.40;99.90;;;;;;4589134;19;20424;-31
2023/03/02 00:47:31;;;;;;;27.65;19.08;;;18.40;99.90;;;;;;4589007;19;20070;-33
2023/03/02 00:49:03;;;;;;;30.15;18.83;;;18.30;99.90;;;;;;4592644;19;20027;-32
2023/03/02 00:50:39;;;;;;;26.88;19.02;;;18.40;99.90;;;;;;4594198;19;20033;-33
2023/03/02 00:52:12;;;;;;;28.30;18.40;;;18.30;99.90;;;;;;4593603;19;20010;-34
2023/03/02 00:53:44;;;;;;;26.02;17.70;;;18.30;99.90;;;;;;4593671;19;20059;-33
2023/03/02 00:55:16;;;;;;;26.13;17.35;;;18.30;99.90;;;;;;4593846;19;20110;-36
2023/03/02 00:56:47;;;;;;;28.05;18.23;;;18.30;99.90;;;;;;4593775;19;20345;-32
2023/03/02 00:58:20;;;;;;;27.95;18.73;;;18.30;99.90;;;;;;4593647;19;20017;-32
2023/03/02 00:59:52;;;;;;;26.88;18.08;;;18.30;99.90;;;;;;4593850;19;20017;-34
2023/03/02 01:01:25;;;;;;;27.48;18.75;;;18.30;99.90;;;;;;4592640;19;20010;-34
2023/03/02 01:02:58;;;;;;;27.58;18.15;;;18.30;99.90;;;;;;4593373;19;20033;-33
2023/03/02 01:04:36;;;;;;;29.73;17.98;;;18.20;99.90;;;;;;4593528;19;20019;-33
2023/03/02 01:06:17;;;;;;;26.23;17.25;;;18.20;99.90;;;;;;4593845;19;20034;-34
2023/03/02 01:07:49;;;;;;;24.98;17.27;;;18.20;99.90;;;;;;4593437;19;20459;-31
2023/03/02 01:09:22;;;;;;;26.77;18.52;;;18.20;99.90;;;;;;4593570;19;20360;-34
2023/03/02 01:10:55;;;;;;;26.05;16.85;;;18.20;99.90;;;;;;4593481;19;20018;-32
2023/03/02 01:12:26;;;;;;;27.10;18.13;;;18.20;99.90;;;;;;4592906;19;20037;-33
2023/03/02 01:13:58;;;;;;;;;;;18.20;99.90;;;;;;4594255;19;20468;-32
2023/03/02 01:15:29;;;;;;;28.02;17.33;;;18.20;99.90;;;;;;4593469;19;20332;-34
2023/03/02 01:17:01;;;;;;;26.25;17.10;;;18.10;99.90;;;;;;4593465;19;20015;-33
2023/03/02 01:18:37;;;;;;;25.58;17.60;;;18.10;99.90;;;;;;4593461;19;20031;-33
2023/03/02 01:20:10;;;;;;;27.05;18.30;;;18.10;99.90;;;;;;4593322;19;20356;-33
2023/03/02 01:21:43;;;;;;;26.15;17.88;;;18.10;99.90;;;;;;4593300;19;20337;-31
2023/03/02 01:23:16;;;;;;;25.92;18.00;;;18.10;99.90;;;;;;4593147;19;20035;-32
2023/03/02 01:24:48;;;;;;;30.92;18.70;;;18.10;99.90;;;;;;4593164;19;20007;-32
2023/03/02 01:26:20;;;;;;;27.40;17.88;;;18.10;99.90;;;;;;4593306;19;20010;-31
2023/03/02 01:27:52;;;;;;;;;;;18.00;99.90;;;;;;4594045;19;20487;-32
2023/03/02 01:29:23;;;;;;;24.67;16.35;;;18.00;99.90;;;;;;4593293;19;19919;-35
2023/03/02 01:30:55;;;;;;;26.42;16.55;;;18.00;99.90;;;;;;4591840;19;20011;-35
2023/03/02 01:32:28;;;;;;;26.58;18.33;;;18.00;99.90;;;;;;4590793;19;20025;-36
2023/03/02 01:33:59;;;;;;;;;;;18.00;99.90;;;;;;4593740;19;20092;-31
2023/03/02 01:35:31;;;;;;;24.95;16.67;;;18.00;99.90;;;;;;4593059;19;20272;-33
2023/03/02 01:37:04;;;;;;;25.40;17.13;;;18.00;99.90;;;;;;4592100;19;20018;-30
2023/03/02 01:38:36;;;;;;;27.17;17.25;;;18.00;99.90;;;;;;4592773;19;20010;-33
2023/03/02 01:40:11;;;;;;;25.73;16.63;;;17.90;99.90;;;;;;4593041;19;20021;-31
2023/03/02 01:41:44;;;;;;;29.60;18.52;;;17.90;99.90;;;;;;4591649;19;20503;-31
2023/03/02 01:43:17;;;;;;;26.30;17.63;;;17.90;99.90;;;;;;4592506;19;20014;-31
2023/03/02 01:44:50;;;;;;;24.52;17.92;;;17.90;99.90;;;;;;4593189;19;20017;-35
2023/03/02 01:46:26;;;;;;;25.35;17.17;;;17.90;99.90;;;;;;4591582;19;20031;-33
2023/03/02 01:47:57;;;;;;;24.85;16.30;;;17.90;99.90;;;;;;4592037;19;20019;-33
2023/03/02 01:49:28;;;;;;;23.30;16.70;;;17.90;99.90;;;;;;4592920;19;20006;-32
2023/03/02 01:51:00;;;;;;;23.33;16.23;;;17.90;99.90;;;;;;4591876;19;20050;-33
2023/03/02 01:52:33;;;;;;;22.50;16.10;;;17.90;99.90;;;;;;4591907;19;20015;-34
2023/03/02 01:54:07;;;;;;;24.05;16.58;;;17.90;99.90;;;;;;4592693;19;20010;-32
2023/03/02 01:55:39;;;;;;;23.75;16.42;;;17.80;99.90;;;;;;4591362;19;20340;-31
2023/03/02 01:57:11;;;;;;;24.95;16.60;;;17.80;99.90;;;;;;4591588;19;20018;-31
2023/03/02 01:58:45;;;;;;;26.52;17.38;;;17.80;99.90;;;;;;4591271;19;20025;-31
2023/03/02 02:00:22;;;;;;;21.88;15.57;;;17.80;99.90;;;;;;4589924;19;20014;-30
2023/03/02 02:01:56;;;;;;;23.23;15.65;;;17.80;99.90;;;;;;4591285;19;20010;-33
2023/03/02 02:03:28;;;;;;;25.02;15.60;;;17.80;99.90;;;;;;4591631;19;20084;-31
2023/03/02 02:04:59;;;;;;;21.83;15.63;;;17.80;99.90;;;;;;4592009;19;20010;-31
2023/03/02 02:06:38;;;;;;;22.05;15.82;;;17.80;99.90;;;;;;4592427;19;20011;-34
2023/03/02 02:08:12;;;;;;;24.73;16.58;;;17.80;99.90;;;;;;4591751;19;20038;-31
2023/03/02 02:09:47;;;;;;;25.25;16.52;;;17.80;99.90;;;;;;4591168;19;20077;-34
2023/03/02 02:11:19;;;;;;;20.05;14.07;;;17.80;99.90;;;;;;4591520;19;20128;-33
2023/03/02 02:12:51;;;;;;;23.27;15.82;;;17.80;99.90;;;;;;4591764;19;20006;-33
2023/03/02 02:14:23;;;;;;;24.02;15.77;;;17.80;99.90;;;;;;4592518;19;20014;-32
2023/03/02 02:15:55;;;;;;;22.50;16.20;;;17.70;99.90;;;;;;4590949;19;20413;-34
2023/03/02 02:17:28;;;;;;;21.42;15.50;;;17.70;99.90;;;;;;4591923;19;20014;-31
2023/03/02 02:19:00;;;;;;;23.58;15.90;;;17.70;99.90;;;;;;4591210;19;20022;-32
2023/03/02 02:20:39;;;;;;;25.83;15.45;;;17.70;99.90;;;;;;4591288;19;20407;-34
2023/03/02 02:22:10;;;;;;;22.45;15.65;;;17.70;99.90;;;;;;4592110;19;20014;-32
2023/03/02 02:24:27;;;;;;;19.08;13.60;;;17.70;99.90;;;;;;4590967;19;20102;-32
2023/03/02 02:26:06;;;;;;;24.85;15.15;;;17.70;99.90;;;;;;4589532;19;20010;-33
2023/03/02 02:27:37;;;;;;;21.13;14.27;;;17.70;99.90;;;;;;4589951;19;20122;-32
2023/03/02 02:29:13;;;;;;;22.80;15.55;;;17.70;99.90;;;;;;4589552;19;20074;-34
2023/03/02 02:30:45;;;;;;;21.10;14.32;;;17.60;99.90;;;;;;4589632;19;20010;-34
2023/03/02 02:32:22;;;;;;;23.42;15.70;;;17.60;99.90;;;;;;4588550;19;20081;-34
2023/03/02 02:33:57;;;;;;;22.13;14.60;;;17.70;99.90;;;;;;4589788;19;20563;-33
2023/03/02 02:35:29;;;;;;;21.95;15.10;;;17.60;99.90;;;;;;4589667;19;20064;-34
2023/03/02 02:37:32;;;;;;;21.73;14.77;;;17.60;99.90;;;;;;4589236;19;20304;-31
2023/03/02 02:39:04;;;;;;;22.00;14.32;;;17.60;99.90;;;;;;4589300;19;20017;-36
2023/03/02 02:40:51;;;;;;;18.65;13.82;;;17.60;99.90;;;;;;4589651;19;20019;-31
2023/03/02 02:42:44;;;;;;;22.05;14.90;;;17.60;99.90;;;;;;4589498;19;20583;-33
2023/03/02 02:44:17;;;;;;;23.48;15.65;;;17.60;99.90;;;;;;4589479;19;20011;-31
2023/03/02 02:45:51;;;;;;;20.75;14.63;;;17.60;99.90;;;;;;4589749;19;20826;-33
2023/03/02 02:47:22;;;;;;;20.60;14.38;;;17.60;99.90;;;;;;4589349;19;20087;-38
2023/03/02 02:48:54;;;;;;;20.13;13.80;;;17.50;99.90;;;;;;4589382;19;20035;-32
2023/03/02 02:50:32;;;;;;;23.83;15.50;;;17.60;99.90;;;;;;4589128;19;20022;-34
2023/03/02 02:52:04;;;;;;;22.02;14.38;;;17.50;99.90;;;;;;4589108;19;20015;-33
2023/03/02 02:53:41;;;;;;;23.48;14.82;;;17.60;99.90;;;;;;4587845;19;20010;-31
2023/03/02 02:55:15;;;;;;;19.17;13.32;;;17.60;99.90;;;;;;4588953;19;20014;-32
2023/03/02 02:56:46;;;;;;;21.60;13.73;;;17.50;99.90;;;;;;4588819;19;20010;-37
2023/03/02 02:58:24;;;;;;;21.40;14.85;;;17.50;99.90;;;;;;4590104;19;20038;-37
2023/03/02 03:00:00;;;;;;;21.13;13.52;;;17.50;99.90;;;;;;4591080;19;20049;-32
2023/03/02 03:01:34;;;;;;;20.77;14.27;;;17.50;99.90;;;;;;4590367;19;20015;-33
2023/03/02 03:03:31;;;;;;;18.58;13.23;;;17.50;99.90;;;;;;4590182;19;20014;-36
2023/03/02 03:05:03;;;;;;;21.73;14.48;;;17.50;99.90;;;;;;4590457;19;20011;-32
2023/03/02 03:06:40;;;;;;;19.23;13.73;;;17.50;99.90;;;;;;4591286;19;20018;-31
2023/03/02 03:08:58;;;;;;;21.40;14.05;;;17.50;99.90;;;;;;4590384;19;20013;-31
2023/03/02 03:10:35;;;;;;;20.73;13.30;;;17.50;99.90;;;;;;4589155;19;20021;-32
2023/03/02 03:12:18;;;;;;;18.92;13.70;;;17.40;99.90;;;;;;4586256;19;20026;-33
2023/03/02 03:14:07;;;;;;;20.42;13.88;;;17.50;99.90;;;;;;4588828;19;20022;-34
2023/03/02 03:15:39;;;;;;;19.10;13.32;;;17.50;99.90;;;;;;4589175;19;20014;-32
2023/03/02 03:17:13;;;;;;;21.00;13.70;;;17.40;99.90;;;;;;4588695;19;20014;-32
2023/03/02 03:18:44;;;;;;;17.25;12.65;;;17.40;99.90;;;;;;4588735;19;20017;-35
2023/03/02 03:20:16;;;;;;;20.77;14.05;;;17.50;99.90;;;;;;4588505;19;20476;-32
2023/03/02 03:21:49;;;;;;;19.92;13.77;;;17.50;99.90;;;;;;4588595;19;20010;-31
2023/03/02 03:23:22;;;;;;;19.73;14.35;;;17.40;99.90;;;;;;4588542;19;20006;-34
2023/03/02 03:24:54;;;;;;;19.50;13.45;;;17.40;99.90;;;;;;4588880;19;20011;-32
2023/03/02 03:26:25;;;;;;;18.95;13.07;;;17.40;99.90;;;;;;4588763;19;20006;-32
2023/03/02 03:28:02;;;;;;;19.02;13.85;;;17.40;99.90;;;;;;4588672;19;20783;-32
2023/03/02 03:29:35;;;;;;;21.38;13.82;;;17.40;99.90;;;;;;4588852;19;20035;-37
2023/03/02 03:31:08;;;;;;;17.77;12.77;;;17.40;99.90;;;;;;4588730;19;20007;-34
2023/03/02 03:32:40;;;;;;;21.08;14.25;;;17.40;99.90;;;;;;4587381;19;20023;-34
2023/03/02 03:34:14;;;;;;;21.48;14.50;;;17.40;99.90;;;;;;4588353;19;20024;-31
2023/03/02 03:35:45;;;;;;;19.38;14.18;;;17.40;99.90;;;;;;4588192;19;20015;-34
2023/03/02 03:37:17;;;;;;;19.77;13.63;;;17.40;99.90;;;;;;4588308;19;20022;-33
2023/03/02 03:38:49;;;;;;;21.15;13.85;;;17.40;99.90;;;;;;4588172;19;20373;-31
2023/03/02 03:40:20;;;;;;;22.08;15.10;;;17.40;99.90;;;;;;4588159;19;20082;-33
2023/03/02 03:41:53;;;;;;;18.90;13.55;;;17.40;99.90;;;;;;4588394;19;20014;-31
2023/03/02 03:43:24;;;;;;;19.38;12.80;;;17.40;99.90;;;;;;4588486;19;20025;-36
2023/03/02 03:44:56;;;;;;;19.25;13.15;;;17.40;99.90;;;;;;4588106;19;20020;-32
2023/03/02 03:46:28;;;;;;;19.67;14.20;;;17.40;99.90;;;;;;4587957;19;20476;-32
2023/03/02 03:48:00;;;;;;;19.30;13.88;;;17.40;99.90;;;;;;4589531;19;20575;-33
2023/03/02 03:49:33;;;;;;;19.67;13.90;;;17.30;99.90;;;;;;4590187;19;20011;-32
2023/03/02 03:51:04;;;;;;;20.30;13.45;;;17.30;99.90;;;;;;4590267;19;20006;-32
2023/03/02 03:52:36;;;;;;;21.75;14.15;;;17.40;99.90;;;;;;4590068;19;20372;-31
2023/03/02 03:54:10;;;;;;;17.60;12.60;;;17.30;99.90;;;;;;4590666;19;20021;-32
2023/03/02 03:55:44;;;;;;;19.70;13.88;;;17.30;99.90;;;;;;4589109;19;20007;-33
2023/03/02 03:57:15;;;;;;;19.65;13.32;;;17.30;99.90;;;;;;4589946;19;20086;-31
2023/03/02 03:58:52;;;;;;;18.88;13.90;;;17.30;99.90;;;;;;4590263;19;20070;-33
2023/03/02 04:00:25;;;;;;;20.10;13.55;;;17.30;99.90;;;;;;4589403;19;20006;-32
2023/03/02 04:01:59;;;;;;;17.23;12.35;;;17.30;99.90;;;;;;4589537;19;20010;-32
2023/03/02 04:03:31;;;;;;;16.02;12.32;;;17.30;99.90;;;;;;4589045;19;20007;-33
2023/03/02 04:05:05;;;;;;;20.55;13.63;;;17.30;99.90;;;;;;4589788;19;20041;-34
2023/03/02 04:06:36;;;;;;;17.02;12.18;;;17.30;99.90;;;;;;4587909;19;20010;-32
2023/03/02 04:08:11;;;;;;;17.58;12.45;;;17.30;99.90;;;;;;4589801;19;20024;-31
2023/03/02 04:09:42;;;;;;;17.13;12.02;;;17.30;99.90;;;;;;4587638;19;20017;-36
2023/03/02 04:11:15;;;;;;;18.67;13.48;;;17.30;99.90;;;;;;4589278;19;20081;-32
2023/03/02 04:12:47;;;;;;;17.45;11.88;;;17.30;99.90;;;;;;4589355;19;20519;-31
2023/03/02 04:14:19;;;;;;;17.33;12.35;;;17.30;99.90;;;;;;4589828;19;20007;-32
2023/03/02 04:15:51;;;;;;;17.30;11.65;;;17.30;99.90;;;;;;4588571;19;20101;-32
2023/03/02 04:17:23;;;;;;;16.80;11.85;;;17.30;99.90;;;;;;4589274;19;20010;-31
2023/03/02 04:18:57;;;;;;;16.73;11.90;;;17.30;99.90;;;;;;4589953;19;20014;-33
2023/03/02 04:20:29;;;;;;;17.10;12.05;;;17.20;99.90;;;;;;4589559;19;20018;-33
2023/03/02 04:22:02;;;;;;;17.27;11.25;;;17.30;99.90;;;;;;4589868;19;20090;-33
2023/03/02 04:23:35;;;;;;;17.40;11.40;;;17.30;99.90;;;;;;4588626;19;20021;-32
2023/03/02 04:25:07;;;;;;;15.95;12.10;;;17.20;99.90;;;;;;4589798;19;20029;-34
2023/03/02 04:26:39;;;;;;;15.88;11.35;;;17.20;99.90;;;;;;4589676;19;20002;-31
2023/03/02 04:28:12;;;;;;;15.65;11.73;;;17.30;99.90;;;;;;4589607;19;20025;-31
2023/03/02 04:29:43;;;;;;;;;;;17.30;99.90;;;;;;4589979;19;20407;-34
2023/03/02 04:31:14;;;;;;;16.10;11.73;;;17.20;99.90;;;;;;4589315;19;19919;-32
2023/03/02 04:32:47;;;;;;;15.65;10.82;;;17.20;99.90;;;;;;4588553;19;20479;-32
2023/03/02 04:34:24;;;;;;;14.45;10.43;;;17.20;99.90;;;;;;4585872;19;20029;-32
2023/03/02 04:35:57;;;;;;;14.07;10.65;;;17.30;99.90;;;;;;4589031;19;20046;-36
2023/03/02 04:37:28;;;;;;;15.23;10.20;;;17.30;99.90;;;;;;4589268;19;20503;-33
2023/03/02 04:39:01;;;;;;;15.02;9.80;;;17.40;99.90;;;;;;4589430;19;20022;-34
2023/03/02 04:40:32;;;;;;;14.18;8.73;;;17.40;99.90;;;;;;4589680;19;20467;-32
2023/03/02 04:42:04;;;;;;;13.73;8.90;;;17.50;99.90;;;;;;4589577;19;20017;-30
2023/03/02 04:43:36;;;;;;;;;;;17.50;99.90;;;;;;4590018;19;20018;-35
2023/03/02 04:45:07;;;;;;;12.85;9.45;;;17.50;99.90;;;;;;4589362;19;19951;-35
2023/03/02 04:46:39;;;;;;;14.40;9.20;;;17.60;99.90;;;;;;4589529;19;20339;-37
2023/03/02 04:48:11;;;;;;;;;;;17.60;99.90;;;;;;4589290;19;20015;-33
2023/03/02 04:49:42;;;;;;;14.48;9.52;;;17.80;99.90;;;;;;4588796;19;19928;-32
2023/03/02 04:51:25;;;;;;;14.25;8.63;;;17.80;99.90;;;;;;4589273;19;20015;-32
2023/03/02 04:52:57;;;;;;;13.85;9.18;;;18.00;99.90;;;;;;4588489;19;20030;-35
2023/03/02 04:54:28;;;;;;;13.77;8.80;;;18.20;99.90;;;;;;4589598;19;20044;-30
2023/03/02 04:56:01;;;;;;;27.15;17.48;;;18.40;99.90;;;;;;4587199;19;20031;-36
2023/03/02 04:57:33;;;;;;;;;;;18.40;99.90;;;;;;4521697;19;20018;-35
2023/03/02 04:59:04;;;;;;;28.67;24.48;;;17.40;97.50;;;;;;4589738;19;20331;-39
2023/03/02 05:00:37;;;;;;;33.73;25.17;;;16.20;96.40;;;;;;4589536;19;20487;-35
2023/03/02 05:02:09;;;;;;;33.65;26.08;;;15.20;97.10;;;;;;4589912;19;20525;-33
2023/03/02 05:03:40;;;;;;;31.42;25.10;;;14.50;97.90;;;;;;4588486;19;20015;-33
2023/03/02 05:05:18;;;;;;;34.43;26.33;;;14.00;98.10;;;;;;4588642;19;20014;-35
2023/03/02 05:06:49;;;;;;;33.77;25.60;;;13.60;98.50;;;;;;4589397;19;20058;-35
2023/03/02 05:08:20;;;;;;;35.20;25.75;;;13.30;98.70;;;;;;4588227;19;20487;-34
2023/03/02 05:09:51;;;;;;;36.65;27.10;;;13.20;99.40;;;;;;4589102;19;20037;-39
2023/03/02 05:11:23;;;;;;;33.80;26.13;;;13.10;99.10;;;;;;4588497;19;20007;-34
2023/03/02 05:12:57;;;;;;;34.42;25.40;;;13.00;99.30;;;;;;4587973;19;20039;-35
2023/03/02 05:14:28;;;;;;;35.10;25.47;;;12.80;99.50;;;;;;4587570;19;20053;-34
2023/03/02 05:16:00;;;;;;;34.42;25.83;;;12.70;99.60;;;;;;4588713;19;20449;-34
2023/03/02 05:17:31;;;;;;;33.78;25.15;;;12.70;99.30;;;;;;4590064;19;20022;-34
2023/03/02 05:19:04;;;;;;;35.93;26.20;;;12.60;99.50;;;;;;4587683;19;20479;-35
2023/03/02 05:20:35;;;;;;;32.23;25.90;;;12.50;99.60;;;;;;4588834;19;20453;-35
2023/03/02 05:22:07;;;;;;;30.35;24.98;;;12.50;99.70;;;;;;4587696;19;20483;-39
2023/03/02 05:23:38;;;;;;;30.70;24.45;;;12.60;99.90;;;;;;4585710;19;20014;-33
2023/03/02 05:25:09;;;;;;;33.63;26.27;;;12.60;99.60;;;;;;4586664;19;20019;-37
2023/03/02 05:26:41;;;;;;;33.80;25.25;;;12.50;99.70;;;;;;4587457;19;20022;-29
2023/03/02 05:28:13;;;;;;;;;;;12.40;99.80;;;;;;4588123;19;20010;-32
2023/03/02 05:29:45;;;;;;;28.83;23.35;;;12.40;99.90;;;;;;4587714;19;19923;-31
2023/03/02 05:31:22;;;;;;;31.30;24.37;;;12.30;99.80;;;;;;4589222;19;20030;-34
2023/03/02 05:32:54;;;;;;;28.03;22.10;;;12.30;99.90;;;;;;4585113;19;20500;-35
2023/03/02 05:34:26;;;;;;;29.77;22.83;;;12.30;99.90;;;;;;4588574;19;20457;-33
2023/03/02 05:35:57;;;;;;;29.77;23.42;;;12.20;99.90;;;;;;4592192;19;20022;-33
2023/03/02 05:37:28;;;;;;;29.85;22.52;;;12.30;99.90;;;;;;4592368;19;20021;-35
2023/03/02 05:39:00;;;;;;;;;;;12.20;99.90;;;;;;4594837;19;20030;-37
2023/03/02 05:40:31;;;;;;;27.80;21.17;;;12.20;99.90;;;;;;4593239;19;19923;-37
2023/03/02 05:42:03;;;;;;;27.80;20.42;;;12.20;99.80;;;;;;4593547;19;20010;-33
2023/03/02 05:43:35;;;;;;;;;;;12.20;99.80;;;;;;4593885;19;20021;-35
2023/03/02 05:45:08;;;;;;;25.50;20.50;;;12.20;99.90;;;;;;4593733;19;19919;-35
2023/03/02 05:46:40;;;;;;;24.73;19.83;;;12.20;99.80;;;;;;4593237;19;20448;-34
2023/03/02 05:48:13;;;;;;;25.58;20.02;;;12.20;99.80;;;;;;4569734;19;21439;-33
2023/03/02 05:49:46;;;;;;;25.17;20.20;;;12.20;99.80;;;;;;4592420;19;20019;-34
2023/03/02 05:51:18;;;;;;;24.60;19.73;;;12.20;99.80;;;;;;4592553;19;20819;-35
2023/03/02 05:52:49;;;;;;;;;;;12.10;99.80;;;;;;4594031;19;20457;-36
2023/03/02 05:54:21;;;;;;;23.33;19.73;;;12.10;99.90;;;;;;4592570;19;20367;-41
2023/03/02 05:55:52;;;;;;;26.70;19.08;;;12.10;99.70;;;;;;4591729;19;20085;-34
2023/03/02 05:57:24;;;;;;;;;;;12.10;99.80;;;;;;4594550;19;20014;-34
2023/03/02 05:58:55;;;;;;;27.17;19.80;;;12.10;99.90;;;;;;4591055;19;19952;-34
2023/03/02 06:00:27;;;;;;;24.52;18.20;;;12.10;99.70;;;;;;4593280;19;20452;-33
2023/03/02 06:01:58;;;;;;;24.40;18.80;;;12.00;99.70;;;;;;4592874;19;20014;-38
2023/03/02 06:03:31;;;;;;;18.00;16.03;;;12.00;99.70;;;;;;4593373;19;20022;-34
2023/03/02 06:05:02;;;;;;;18.90;14.68;;;12.00;99.60;;;;;;4591849;19;20448;-32
2023/03/02 06:06:34;;;;;;;;;;;12.00;99.60;;;;;;4592770;19;20809;-36
2023/03/02 06:08:07;;;;;;;21.05;15.82;;;12.00;99.60;;;;;;4593322;19;19945;-32
2023/03/02 06:09:38;;;;;;;19.33;14.97;;;12.00;99.40;;;;;;4592157;19;20018;-34
2023/03/02 06:11:13;;;;;;;22.27;15.33;;;12.00;99.40;;;;;;4592630;19;20468;-35
2023/03/02 06:12:44;;;;;;;19.60;15.43;;;12.00;99.50;;;;;;4591780;19;20496;-35
2023/03/02 06:14:16;;;;;;;18.70;14.97;;;12.00;99.40;;;;;;4593323;19;20992;-37
2023/03/02 06:15:48;;;;;;;19.17;14.32;;;12.00;99.30;;;;;;4592452;19;20445;-35
2023/03/02 06:17:20;;;;;;;20.53;14.60;;;12.00;99.30;;;;;;4590943;19;20039;-36
2023/03/02 06:18:51;;;;;;;18.95;14.60;;;12.00;99.20;;;;;;4591805;19;20457;-37
2023/03/02 06:20:23;;;;;;;15.13;11.45;;;12.00;99.30;;;;;;4591536;19;20033;-34
2023/03/02 06:21:54;;;;;;;16.33;12.20;;;12.00;99.20;;;;;;4593631;19;20014;-34
2023/03/02 06:23:26;;;;;;;16.60;11.90;;;11.90;99.10;;;;;;4592431;19;20014;-37
2023/03/02 06:24:57;;;;;;;;;;;12.00;99.10;;;;;;4593943;19;20015;-34
2023/03/02 06:26:28;;;;;;;16.60;11.50;;;11.90;99.20;;;;;;4592404;19;20343;-38
2023/03/02 06:28:00;;;;;;;13.63;9.70;;;11.90;99.00;;;;;;4591172;19;20014;-35
2023/03/02 06:29:31;;;;;;;;;;;11.90;98.80;;;;;;4593774;19;20014;-33
2023/03/02 06:31:02;;;;;;;9.07;5.97;;;11.90;99.20;;;;;;4591627;19;20374;-36
2023/03/02 06:32:35;;;;;;;10.33;6.17;;;11.90;98.70;;;;;;4593455;19;20018;-34
2023/03/02 06:34:07;;;;;;;10.38;5.57;;;11.90;98.60;;;;;;4591697;19;20445;-39
2023/03/02 06:35:38;;;;;;;8.68;4.93;;;12.00;98.80;;;;;;4591942;19;20095;-40
2023/03/02 06:37:10;;;;;;;8.93;5.17;;;12.10;98.80;;;;;;4591943;19;20020;-37
2023/03/02 06:38:42;;;;;;;8.67;6.00;;;12.30;98.30;;;;;;4592074;19;20463;-41
2023/03/02 06:40:17;;;;;;;9.80;5.50;;;12.30;98.20;;;;;;4591382;19;20536;-36
2023/03/02 06:41:50;;;;;;;9.30;5.70;;;12.30;98.10;;;;;;4591508;19;20558;-41
2023/03/02 06:43:21;;;;;;;10.68;5.53;;;12.20;98.10;;;;;;4590683;19;20463;-38
2023/03/02 06:44:53;;;;;;;10.27;7.10;;;12.10;98.10;;;;;;4591417;19;20482;-37
2023/03/02 06:46:25;;;;;;;9.53;5.53;;;12.00;98.20;;;;;;4590985;19;20011;-35
2023/03/02 06:47:59;;;;;;;8.50;5.13;;;12.00;98.20;;;;;;4591395;19;20460;-40
2023/03/02 06:49:31;;;;;;;9.30;4.93;;;11.90;98.30;;;;;;4589368;19;20449;-34
2023/03/02 06:51:02;;;;;;;9.15;5.57;;;11.90;98.40;;;;;;4591454;19;20812;-33
2023/03/02 06:52:34;;;;;;;8.45;4.72;;;11.90;98.30;;;;;;4591185;19;20023;-34
2023/03/02 06:54:07;;;;;;;8.77;5.03;;;11.80;98.40;;;;;;4591327;19;20021;-34
2023/03/02 06:55:40;;;;;;;12.77;6.13;;;11.80;98.50;;;;;;4591799;19;20459;-34
2023/03/02 06:57:12;;;;;;;8.00;4.85;;;11.80;98.30;;;;;;4590449;19;20429;-34
2023/03/02 06:58:43;;;;;;;9.23;4.82;;;11.80;98.20;;;;;;4591223;19;20010;-34
2023/03/02 07:00:23;;;;;;;8.38;5.07;;;11.80;98.10;;;;;;4591415;19;20059;-34
2023/03/02 07:01:55;;;;;;;8.33;5.07;;;11.80;98.20;;;;;;4591544;19;20017;-34
2023/03/02 07:03:28;;;;;;;9.83;5.93;;;11.80;98.30;;;;;;4591375;19;20426;-35
2023/03/02 07:04:59;;;;;;;10.45;6.80;;;11.80;98.30;;;;;;4591101;19;20441;-34
2023/03/02 07:06:31;;;;;;;10.75;5.78;;;11.80;98.40;;;;;;4591298;19;20037;-35
2023/03/02 07:08:02;;;;;;;12.18;6.15;;;11.80;98.50;;;;;;4591158;19;20492;-34
2023/03/02 07:09:33;;;;;;;10.07;5.43;;;11.80;98.90;;;;;;4590616;19;20010;-35
2023/03/02 07:11:09;;;;;;;7.93;4.82;;;12.10;98.80;;;;;;4589599;19;20010;-34
2023/03/02 07:12:41;;;;;;;9.27;5.23;;;12.20;98.30;;;;;;4590358;19;20464;-34
2023/03/02 07:14:12;;;;;;;7.22;3.67;;;12.20;98.00;;;;;;4590969;19;20436;-34
2023/03/02 07:15:43;;;;;;;6.97;5.10;;;12.10;98.00;;;;;;4590683;19;20010;-34
2023/03/02 07:17:14;;;;;;;12.57;5.95;;;12.00;98.10;;;;;;4590600;19;20011;-35
2023/03/02 07:18:45;;;;;;;8.88;5.18;;;11.90;98.10;;;;;;4590512;19;20014;-36
2023/03/02 07:20:17;;;;;;;8.48;4.70;;;11.90;98.00;;;;;;4591287;19;20011;-36
2023/03/02 07:21:48;;;;;;;7.03;4.10;;;11.80;97.90;;;;;;4592050;19;20011;-36
2023/03/02 07:23:20;;;;;;;7.72;4.15;;;11.80;97.80;;;;;;4590281;19;20017;-40
2023/03/02 07:24:51;;;;;;;9.30;4.13;;;11.80;97.70;;;;;;4590563;19;20352;-36
2023/03/02 07:26:23;;;;;;;11.70;4.55;;;11.80;97.70;;;;;;4591044;19;20459;-34
2023/03/02 07:27:54;;;;;;;11.07;4.93;;;11.70;97.60;;;;;;4590415;19;20021;-34
2023/03/02 07:29:26;;;;;;;7.43;3.97;;;11.70;97.80;;;;;;4590573;19;20086;-34
2023/03/02 07:30:57;;;;;;;7.25;4.10;;;11.70;97.80;;;;;;4591139;19;20011;-36
2023/03/02 07:32:29;;;;;;;6.20;4.00;;;11.70;97.60;;;;;;4589678;19;20078;-34
2023/03/02 07:34:01;;;;;;;9.05;4.65;;;11.70;97.70;;;;;;4590252;19;20460;-33
2023/03/02 07:35:33;;;;;;;9.90;6.10;;;11.70;98.00;;;;;;4590509;19;20479;-33
2023/03/02 07:37:04;;;;;;;11.35;7.45;;;11.70;97.80;;;;;;4590841;19;20429;-34
2023/03/02 07:38:36;;;;;;;13.52;7.38;;;11.70;97.90;;;;;;4590266;19;20019;-34
2023/03/02 07:40:10;;;;;;;16.93;10.77;;;11.70;98.00;;;;;;4590062;19;20051;-34
2023/03/02 07:41:42;;;;;;;14.13;7.90;;;11.70;97.90;;;;;;4587696;19;20447;-34
2023/03/02 07:43:15;;;;;;;12.50;7.33;;;11.80;98.00;;;;;;4588522;19;20453;-34
2023/03/02 07:44:46;;;;;;;12.70;7.22;;;11.80;97.90;;;;;;4590307;19;20496;-37
2023/03/02 07:46:18;;;;;;;9.63;6.90;;;11.80;97.70;;;;;;4587805;19;20014;-34
2023/03/02 07:47:50;;;;;;;12.85;7.40;;;11.80;98.00;;;;;;4587714;19;20448;-35
2023/03/02 07:49:23;;;;;;;12.77;6.83;;;11.80;97.80;;;;;;4588011;19;20017;-34
2023/03/02 07:50:58;;;;;;;9.35;6.65;;;11.80;98.00;;;;;;4587868;19;20521;-34
2023/03/02 07:52:31;;;;;;;15.17;6.80;;;11.90;98.20;;;;;;4587990;19;20018;-35
2023/03/02 07:54:03;;;;;;;10.35;5.57;;;11.90;98.10;;;;;;4586595;19;20786;-34
2023/03/02 07:55:42;;;;;;;12.13;6.17;;;11.90;98.00;;;;;;4588531;19;20038;-34
2023/03/02 07:57:15;;;;;;;9.03;5.37;;;11.90;97.90;;;;;;4587860;19;20432;-34
2023/03/02 07:58:46;;;;;;;8.93;5.27;;;11.90;97.40;;;;;;4585956;19;20483;-34